createdAt,value
2018-03-18T00:00:17.848Z,75.02
2018-03-18T00:02:46.915Z,74.49
2018-03-18T00:05:15.902Z,73.97
2018-03-18T00:07:47.013Z,74.49
2018-03-18T00:10:16.015Z,74.45
2018-03-18T00:12:45.187Z,74.69
2018-03-18T00:15:14.443Z,74.54
2018-03-18T00:17:43.494Z,74.04
2018-03-18T00:20:12.401Z,73.91
2018-03-18T00:22:41.815Z,74.49
2018-03-18T00:25:10.724Z,74.21
2018-03-18T00:27:41.468Z,74.22
2018-03-18T00:30:10.626Z,74.67
2018-03-18T00:32:39.580Z,74.73
2018-03-18T00:35:11.330Z,74.83
2018-03-18T00:37:40.846Z,74.71
2018-03-18T00:40:09.759Z,75.31
2018-03-18T00:42:39.228Z,74.57
2018-03-18T00:45:08.132Z,74.68
2018-03-18T00:47:38.303Z,74.36
2018-03-18T00:50:07.639Z,74.34
2018-03-18T00:52:36.548Z,74.36
2018-03-18T00:55:05.452Z,74.44
2018-03-18T00:57:34.757Z,73.90
2018-03-18T01:00:04.985Z,74.67
2018-03-18T01:02:33.875Z,74.90
2018-03-18T01:05:03.672Z,74.98
2018-03-18T01:07:32.537Z,75.06
2018-03-18T01:10:03.655Z,74.96
2018-03-18T01:12:33.678Z,74.67
2018-03-18T01:15:03.174Z,74.67
2018-03-18T01:17:32.507Z,74.80
2018-03-18T01:20:02.360Z,75.20
2018-03-18T01:22:31.212Z,75.19
2018-03-18T01:25:00.813Z,74.87
2018-03-18T01:27:30.142Z,75.56
2018-03-18T01:29:59.285Z,75.40
2018-03-18T01:32:28.613Z,74.81
2018-03-18T01:34:57.661Z,75.07
2018-03-18T01:37:27.720Z,75.06
2018-03-18T01:39:57.167Z,75.38
2018-03-18T01:42:26.218Z,76.15
2018-03-18T01:44:55.875Z,75.46
2018-03-18T01:47:27.439Z,75.26
2018-03-18T01:49:56.393Z,75.68
2018-03-18T01:52:25.290Z,75.66
2018-03-18T01:54:54.215Z,75.75
2018-03-18T01:57:23.062Z,75.37
2018-03-18T01:59:53.252Z,75.39
2018-03-18T02:02:22.135Z,75.68
2018-03-18T02:04:50.991Z,76.79
2018-03-18T02:07:20.189Z,76.26
2018-03-18T02:09:49.141Z,76.18
2018-03-18T02:12:18.102Z,75.59
2018-03-18T02:14:48.971Z,75.43
2018-03-18T02:17:19.586Z,75.26
2018-03-18T02:19:50.016Z,75.53
2018-03-18T02:22:20.029Z,75.18
2018-03-18T02:24:49.813Z,74.96
2018-03-18T02:27:19.146Z,74.71
2018-03-18T02:29:49.907Z,75.08
2018-03-18T02:32:18.914Z,74.83
2018-03-18T02:34:50.402Z,74.77
2018-03-18T02:37:22.472Z,74.85
2018-03-18T02:39:51.679Z,74.59
2018-03-18T02:42:22.064Z,74.67
2018-03-18T02:44:50.943Z,74.31
2018-03-18T02:47:19.786Z,74.41
2018-03-18T02:49:49.282Z,74.65
2018-03-18T02:52:21.516Z,74.25
2018-03-18T02:54:52.345Z,74.18
2018-03-18T02:57:21.897Z,74.49
2018-03-18T02:59:50.793Z,74.44
2018-03-18T03:02:19.849Z,74.21
2018-03-18T03:04:49.242Z,73.92
2018-03-18T03:07:18.169Z,74.26
2018-03-18T03:09:47.871Z,73.71
2018-03-18T03:12:16.743Z,73.29
2018-03-18T03:14:45.839Z,73.24
2018-03-18T03:17:15.182Z,72.76
2018-03-18T03:19:44.804Z,73.33
2018-03-18T03:22:13.730Z,73.84
2018-03-18T03:24:43.178Z,73.77
2018-03-18T03:27:12.236Z,73.96
2018-03-18T03:29:41.211Z,74.33
2018-03-18T03:32:10.439Z,74.45
2018-03-18T03:34:39.309Z,74.42
2018-03-18T03:37:08.242Z,74.08
2018-03-18T03:39:37.496Z,74.87
2018-03-18T03:42:06.475Z,74.07
2018-03-18T03:44:35.367Z,73.58
2018-03-18T03:47:04.353Z,73.50
2018-03-18T03:49:33.246Z,73.70
2018-03-18T03:52:03.455Z,73.79
2018-03-18T03:54:32.343Z,74.26
2018-03-18T03:57:01.245Z,73.41
2018-03-18T03:59:30.612Z,73.29
2018-03-18T04:01:59.632Z,72.59
2018-03-18T04:04:28.991Z,72.34
2018-03-18T04:06:58.263Z,72.14
2018-03-18T04:09:27.162Z,72.52
2018-03-18T04:11:56.015Z,72.22
2018-03-18T04:14:25.295Z,71.63
2018-03-18T04:16:54.180Z,71.80
2018-03-18T04:19:23.111Z,71.49
2018-03-18T04:21:52.412Z,71.59
2018-03-18T04:24:21.294Z,71.98
2018-03-18T04:26:50.174Z,71.86
2018-03-18T04:29:19.173Z,71.55
2018-03-18T04:31:47.954Z,71.82
2018-03-18T04:34:17.628Z,71.53
2018-03-18T04:36:46.727Z,71.76
2018-03-18T04:39:15.625Z,71.05
2018-03-18T04:41:44.852Z,70.36
2018-03-18T04:44:13.755Z,70.40
2018-03-18T04:46:42.691Z,70.67
2018-03-18T04:49:11.921Z,70.10
2018-03-18T04:51:40.826Z,69.62
2018-03-18T04:54:09.817Z,70.01
2018-03-18T04:56:39.114Z,70.27
2018-03-18T04:59:08.068Z,69.85
2018-03-18T05:01:37.117Z,69.24
2018-03-18T05:04:06.647Z,68.83
2018-03-18T05:06:35.562Z,69.53
2018-03-18T05:09:04.764Z,68.88
2018-03-18T05:11:33.667Z,68.51
2018-03-18T05:14:03.129Z,68.01
2018-03-18T05:16:32.525Z,68.16
2018-03-18T05:19:01.434Z,68.23
2018-03-18T05:21:30.276Z,68.38
2018-03-18T05:23:59.552Z,67.79
2018-03-18T05:26:28.424Z,67.78
2018-03-18T05:28:57.322Z,67.84
2018-03-18T05:31:26.587Z,67.70
2018-03-18T05:33:55.480Z,67.45
2018-03-18T05:36:24.360Z,67.69
2018-03-18T05:38:53.835Z,67.37
2018-03-18T05:41:22.751Z,66.74
2018-03-18T05:43:51.997Z,66.89
2018-03-18T05:46:21.375Z,67.19
2018-03-18T05:48:50.246Z,68.03
2018-03-18T05:51:19.114Z,66.86
2018-03-18T05:53:48.462Z,65.41
2018-03-18T05:56:17.379Z,65.06
2018-03-18T05:58:46.396Z,66.00
2018-03-18T06:02:18.313Z,66.58
2018-03-18T06:04:47.338Z,65.34
2018-03-18T06:07:17.477Z,64.94
2018-03-18T06:09:46.661Z,65.01
2018-03-18T06:12:15.654Z,65.11
2018-03-18T06:14:44.927Z,65.45
2018-03-18T06:17:14.314Z,65.34
2018-03-18T06:19:44.924Z,65.47
2018-03-18T06:22:15.302Z,65.34
2018-03-18T06:24:44.823Z,64.89
2018-03-18T06:27:14.493Z,65.34
2018-03-18T06:29:43.791Z,66.14
2018-03-18T06:32:13.154Z,65.35
2018-03-18T06:34:43.746Z,65.28
2018-03-18T06:37:12.701Z,65.06
2018-03-18T06:39:41.647Z,65.48
2018-03-18T06:42:11.019Z,65.61
2018-03-18T06:44:40.339Z,65.30
2018-03-18T06:47:09.681Z,64.65
2018-03-18T06:49:38.710Z,64.64
2018-03-18T06:52:07.703Z,64.21
2018-03-18T06:54:36.701Z,64.25
2018-03-18T06:57:05.727Z,64.80
2018-03-18T06:59:34.730Z,65.02
2018-03-18T07:02:05.141Z,65.27
2018-03-18T07:04:34.106Z,65.60
2018-03-18T07:07:03.659Z,65.87
2018-03-18T07:09:32.954Z,66.23
2018-03-18T07:12:03.801Z,65.65
2018-03-18T07:14:32.863Z,66.40
2018-03-18T07:17:03.148Z,66.01
2018-03-18T07:19:32.416Z,65.56
2018-03-18T07:22:01.859Z,66.17
2018-03-18T07:24:31.359Z,66.29
2018-03-18T07:27:00.406Z,67.11
2018-03-18T07:29:29.403Z,67.65
2018-03-18T07:31:58.568Z,67.86
2018-03-18T07:34:27.643Z,68.79
2018-03-18T07:36:57.037Z,67.99
2018-03-18T07:39:26.029Z,68.61
2018-03-18T07:41:54.999Z,68.56
2018-03-18T07:44:24.512Z,69.08
2018-03-18T07:46:53.825Z,69.22
2018-03-18T07:49:23.303Z,69.03
2018-03-18T07:51:53.265Z,68.81
2018-03-18T07:54:22.337Z,69.01
2018-03-18T07:56:51.292Z,69.15
2018-03-18T07:59:20.566Z,69.53
2018-03-18T08:01:49.769Z,70.06
2018-03-18T08:04:18.962Z,70.46
2018-03-18T08:06:48.491Z,70.84
2018-03-18T08:09:17.492Z,70.44
2018-03-18T08:11:46.757Z,70.36
2018-03-18T08:14:16.229Z,70.38
2018-03-18T08:16:45.273Z,69.63
2018-03-18T08:19:14.590Z,69.85
2018-03-18T08:21:43.497Z,69.58
2018-03-18T08:24:12.462Z,69.13
2018-03-18T08:26:42.022Z,69.37
2018-03-18T08:29:11.376Z,69.02
2018-03-18T08:31:40.496Z,69.16
2018-03-18T08:34:09.922Z,68.28
2018-03-18T08:36:39.116Z,67.69
2018-03-18T08:39:07.568Z,68.07
2018-03-18T08:41:37.887Z,67.87
2018-03-18T08:44:07.037Z,67.69
2018-03-18T08:46:36.129Z,67.37
2018-03-18T08:49:05.613Z,66.13
2018-03-18T08:51:34.580Z,66.33
2018-03-18T08:54:04.624Z,67.04
2018-03-18T08:56:33.502Z,65.06
2018-03-18T08:59:03.545Z,65.22
2018-03-18T09:01:33.909Z,65.83
2018-03-18T09:04:05.611Z,64.41
2018-03-18T09:06:34.851Z,63.51
2018-03-18T09:09:05.188Z,63.33
2018-03-18T09:11:34.135Z,63.77
2018-03-18T09:14:04.988Z,63.76
2018-03-18T09:16:34.386Z,65.47
2018-03-18T09:19:07.886Z,64.08
2018-03-18T09:21:37.064Z,62.70
2018-03-18T09:24:09.310Z,62.90
2018-03-18T09:26:38.678Z,62.75
2018-03-18T09:29:08.118Z,63.70
2018-03-18T09:31:37.665Z,61.64
2018-03-18T09:34:06.678Z,62.24
2018-03-18T09:36:35.896Z,61.70
2018-03-18T09:39:05.341Z,60.68
2018-03-18T09:41:34.336Z,60.67
2018-03-18T09:44:05.219Z,60.63
2018-03-18T09:46:34.204Z,60.51
2018-03-18T09:49:03.602Z,59.41
2018-03-18T09:51:34.140Z,59.29
2018-03-18T09:54:04.630Z,59.90
2018-03-18T09:56:33.882Z,59.63
2018-03-18T09:59:05.333Z,59.96
2018-03-18T10:01:34.608Z,59.38
2018-03-18T10:04:05.199Z,59.36
2018-03-18T10:06:34.491Z,59.11
2018-03-18T10:09:04.220Z,60.19
2018-03-18T10:11:33.343Z,59.19
2018-03-18T10:14:05.166Z,59.89
2018-03-18T10:16:34.247Z,59.17
2018-03-18T10:19:04.671Z,59.82
2018-03-18T10:21:33.732Z,58.87
2018-03-18T10:24:04.968Z,59.19
2018-03-18T10:26:34.440Z,59.16
2018-03-18T10:29:03.554Z,59.73
2018-03-18T10:31:32.736Z,59.32
2018-03-18T10:34:06.159Z,58.95
2018-03-18T10:36:35.347Z,59.53
2018-03-18T10:39:05.332Z,58.64
2018-03-18T10:41:34.604Z,58.66
2018-03-18T10:44:05.551Z,58.80
2018-03-18T10:46:34.493Z,58.81
2018-03-18T10:49:04.715Z,58.67
2018-03-18T10:51:33.710Z,59.48
2018-03-18T10:54:05.647Z,59.19
2018-03-18T10:56:34.593Z,59.56
2018-03-18T10:59:04.802Z,59.21
2018-03-18T11:01:38.883Z,58.82
2018-03-18T11:04:11.527Z,58.93
2018-03-18T11:06:41.111Z,59.97
2018-03-18T11:09:10.430Z,60.17
2018-03-18T11:11:39.584Z,59.78
2018-03-18T11:14:09.170Z,59.61
2018-03-18T11:16:38.098Z,59.42
2018-03-18T11:19:07.101Z,59.79
2018-03-18T11:21:37.233Z,59.46
2018-03-18T11:24:06.703Z,59.08
2018-03-18T11:26:35.697Z,59.22
2018-03-18T11:29:05.274Z,58.43
2018-03-18T11:31:34.367Z,58.03
2018-03-18T11:34:04.987Z,57.84
2018-03-18T11:36:34.464Z,57.02
2018-03-18T11:39:06.599Z,56.15
2018-03-18T11:41:36.016Z,56.93
2018-03-18T11:44:07.949Z,56.84
2018-03-18T11:46:37.303Z,55.72
2018-03-18T11:49:06.397Z,55.85
2018-03-18T11:51:37.083Z,56.96
2018-03-18T11:54:06.075Z,56.56
2018-03-18T11:56:35.007Z,56.09
2018-03-18T11:59:05.209Z,56.00
2018-03-18T12:01:34.290Z,55.49
2018-03-18T12:04:04.155Z,56.17
2018-03-18T12:06:34.540Z,56.37
2018-03-18T12:09:05.191Z,55.66
2018-03-18T12:11:34.126Z,55.06
2018-03-18T12:14:05.225Z,55.69
2018-03-18T12:16:34.545Z,56.28
2018-03-18T12:19:04.272Z,55.38
2018-03-18T12:21:33.269Z,55.22
2018-03-18T12:24:05.279Z,54.59
2018-03-18T12:26:34.919Z,54.22
2018-03-18T12:29:05.457Z,54.12
2018-03-18T12:31:34.431Z,55.24
2018-03-18T12:34:07.649Z,54.10
2018-03-18T12:36:36.783Z,53.81
2018-03-18T12:39:06.608Z,54.52
2018-03-18T12:41:36.701Z,54.47
2018-03-18T12:44:06.842Z,54.22
2018-03-18T12:46:43.367Z,54.14
2018-03-18T12:49:12.743Z,54.35
2018-03-18T12:51:42.337Z,53.51
2018-03-18T12:54:11.386Z,54.08
2018-03-18T12:56:42.035Z,54.33
2018-03-18T12:59:11.760Z,54.99
2018-03-18T13:01:40.858Z,55.18
2018-03-18T13:04:09.973Z,54.90
2018-03-18T13:06:40.514Z,55.18
2018-03-18T13:09:09.443Z,54.25
2018-03-18T13:11:38.619Z,54.69
2018-03-18T13:14:09.200Z,54.11
2018-03-18T13:16:38.092Z,54.13
2018-03-18T13:19:06.988Z,54.18
2018-03-18T13:21:40.847Z,54.02
2018-03-18T13:24:10.228Z,54.51
2018-03-18T13:26:39.183Z,53.74
2018-03-18T13:29:09.770Z,53.61
2018-03-18T13:31:38.749Z,54.66
2018-03-18T13:34:08.240Z,54.56
2018-03-18T13:36:37.742Z,54.90
2018-03-18T13:39:07.014Z,54.81
2018-03-18T13:41:36.052Z,54.80
2018-03-18T13:47:06.273Z,53.58
2018-03-18T13:49:36.032Z,53.85
2018-03-18T13:52:06.121Z,54.09
2018-03-18T13:54:35.317Z,54.06
2018-03-18T13:57:05.526Z,55.13
2018-03-18T13:59:34.723Z,54.77
2018-03-18T14:02:05.328Z,54.77
2018-03-18T14:04:35.966Z,54.86
2018-03-18T14:07:06.326Z,55.24
2018-03-18T14:09:35.281Z,55.30
2018-03-18T14:12:07.757Z,55.56
2018-03-18T14:14:36.703Z,55.51
2018-03-18T14:17:05.978Z,54.89
2018-03-18T14:19:35.347Z,55.29
2018-03-18T14:22:05.347Z,56.22
2018-03-18T14:24:34.348Z,56.47
2018-03-18T14:27:04.154Z,56.87
2018-03-18T14:29:33.044Z,56.32
2018-03-18T14:32:04.378Z,56.01
2018-03-18T14:34:34.290Z,56.43
2018-03-18T14:37:05.387Z,55.79
2018-03-18T14:39:34.965Z,55.19
2018-03-18T14:42:05.572Z,55.98
2018-03-18T14:44:35.738Z,56.39
2018-03-18T14:47:06.111Z,55.25
2018-03-18T14:49:35.068Z,55.50
2018-03-18T14:52:06.177Z,55.62
2018-03-18T14:54:35.892Z,55.90
2018-03-18T14:57:07.828Z,56.06
2018-03-18T14:59:38.074Z,55.69
2018-03-18T15:02:07.661Z,55.47
2018-03-18T15:04:37.006Z,55.77
2018-03-18T15:07:07.689Z,55.91
2018-03-18T15:09:37.169Z,55.83
2018-03-18T15:12:06.523Z,55.42
2018-03-18T15:14:35.817Z,56.02
2018-03-18T15:17:05.906Z,55.80
2018-03-18T15:19:35.206Z,55.42
2018-03-18T15:22:05.267Z,56.31
2018-03-18T15:24:34.257Z,55.74
2018-03-18T15:27:16.937Z,55.73
2018-03-18T15:29:46.575Z,55.73
2018-03-18T15:32:15.928Z,55.58
2018-03-18T15:34:45.023Z,55.73
2018-03-18T15:37:14.362Z,56.67
2018-03-18T15:39:43.292Z,56.07
2018-03-18T15:42:12.266Z,56.15
2018-03-18T15:44:41.438Z,56.03
2018-03-18T15:47:10.650Z,56.27
2018-03-18T15:49:41.044Z,55.83
2018-03-18T15:52:12.680Z,56.25
2018-03-18T15:54:41.708Z,56.18
2018-03-18T15:57:13.868Z,55.24
2018-03-18T15:59:43.050Z,55.44
2018-03-18T16:02:12.003Z,55.45
2018-03-18T16:04:41.457Z,56.21
2018-03-18T16:07:10.346Z,55.92
2018-03-18T16:09:39.692Z,55.10
2018-03-18T16:12:09.834Z,55.29
2018-03-18T16:14:38.803Z,55.62
2018-03-18T16:17:08.725Z,55.10
2018-03-18T16:19:38.953Z,55.46
2018-03-18T16:22:07.994Z,55.31
2018-03-18T16:24:37.166Z,54.91
2018-03-18T16:27:06.130Z,55.17
2018-03-18T16:31:44.957Z,55.54
2018-03-18T16:34:16.277Z,55.68
2018-03-18T16:36:45.274Z,55.38
2018-03-18T16:39:14.408Z,55.09
2018-03-18T16:41:43.372Z,55.13
2018-03-18T16:44:12.389Z,55.87
2018-03-18T16:46:41.732Z,54.97
2018-03-18T16:49:11.586Z,54.53
2018-03-18T16:51:41.595Z,55.08
2018-03-18T16:54:11.084Z,54.32
2018-03-18T16:56:40.031Z,54.66
2018-03-18T16:59:10.572Z,54.40
2018-03-18T17:01:39.944Z,54.07
2018-03-18T17:04:09.704Z,54.71
2018-03-18T17:06:38.889Z,55.36
2018-03-18T17:09:07.843Z,54.74
2018-03-18T17:11:36.899Z,54.80
2018-03-18T17:14:06.710Z,55.18
2018-03-18T17:16:35.620Z,54.65
2018-03-18T17:19:04.677Z,55.02
2018-03-18T17:21:34.017Z,55.09
2018-03-18T17:24:04.721Z,54.01
2018-03-18T17:26:33.650Z,53.87
2018-03-18T17:29:04.007Z,54.12
2018-03-18T17:31:33.078Z,54.01
2018-03-18T17:34:04.214Z,54.55
2018-03-18T17:36:33.584Z,54.12
2018-03-18T17:39:03.172Z,54.57
2018-03-18T17:41:32.316Z,54.33
2018-03-18T17:44:03.171Z,54.32
2018-03-18T17:48:45.915Z,54.54
2018-03-18T17:51:25.909Z,54.73
2018-03-18T17:56:07.142Z,54.77
2018-03-18T17:58:36.332Z,54.87
2018-03-18T18:01:05.624Z,53.98
2018-03-18T18:03:35.055Z,54.49
2018-03-18T18:06:05.581Z,54.38
2018-03-18T18:08:34.771Z,54.56
2018-03-18T18:11:04.963Z,54.20
2018-03-18T18:13:33.838Z,54.68
2018-03-18T18:16:03.314Z,54.56
2018-03-18T18:18:32.676Z,54.31
2018-03-18T18:21:01.845Z,54.68
2018-03-18T18:23:30.751Z,54.47
2018-03-18T18:26:00.118Z,54.55
2018-03-18T18:28:29.053Z,54.98
2018-03-18T18:30:57.957Z,54.61
2018-03-18T18:33:26.846Z,54.99
2018-03-18T18:35:55.792Z,54.60
2018-03-18T18:38:25.191Z,55.11
2018-03-18T18:40:54.214Z,54.51
2018-03-18T18:43:23.265Z,54.22
2018-03-18T18:45:52.517Z,55.21
2018-03-18T18:48:21.454Z,55.13
2018-03-18T18:50:50.471Z,55.04
2018-03-18T18:53:19.794Z,55.28
2018-03-18T18:55:48.900Z,54.72
2018-03-18T18:58:17.829Z,55.20
2018-03-18T19:00:47.022Z,55.73
2018-03-18T19:03:15.909Z,54.77
2018-03-18T19:05:44.809Z,55.26
2018-03-18T19:08:14.285Z,54.81
2018-03-18T19:10:43.277Z,55.46
2018-03-18T19:13:13.784Z,55.41
2018-03-18T19:15:42.813Z,55.60
2018-03-18T19:18:11.686Z,55.18
2018-03-18T19:20:41.500Z,56.06
2018-03-18T19:23:10.543Z,55.29
2018-03-18T19:25:39.841Z,55.30
2018-03-18T19:28:09.187Z,55.57
2018-03-18T19:30:38.193Z,55.41
2018-03-18T19:33:07.124Z,55.55
2018-03-18T19:35:38.093Z,55.62
2018-03-18T19:38:06.992Z,56.02
2018-03-18T19:40:36.191Z,55.60
2018-03-18T19:43:05.576Z,56.10
2018-03-18T19:45:34.444Z,56.01
2018-03-18T19:48:05.594Z,56.30
2018-03-18T19:50:35.021Z,56.41
2018-03-18T19:53:04.480Z,56.53
2018-03-18T19:55:34.821Z,56.34
2018-03-18T19:58:04.675Z,56.60
2018-03-18T20:00:33.631Z,56.90
2018-03-18T20:03:04.241Z,57.39
2018-03-18T20:05:33.243Z,56.96
2018-03-18T20:08:03.321Z,57.00
2018-03-18T20:10:32.846Z,57.65
2018-03-18T20:13:02.606Z,57.55
2018-03-18T20:15:31.558Z,57.57
2018-03-18T20:18:01.712Z,58.08
2018-03-18T20:20:30.789Z,57.81
2018-03-18T20:23:00.274Z,57.70
2018-03-18T20:25:30.467Z,57.65
2018-03-18T20:27:59.791Z,57.87
2018-03-18T20:30:28.731Z,58.16
2018-03-18T20:32:58.003Z,57.98
2018-03-18T20:35:26.885Z,58.08
2018-03-18T20:37:55.809Z,57.65
2018-03-18T20:40:25.085Z,58.34
2018-03-18T20:42:53.965Z,58.32
2018-03-18T20:45:23.220Z,58.02
2018-03-18T20:47:52.751Z,58.50
2018-03-18T20:50:21.622Z,58.27
2018-03-18T20:52:50.902Z,58.14
2018-03-18T20:55:19.815Z,58.54
2018-03-18T20:57:48.893Z,58.38
2018-03-18T21:00:18.220Z,58.64
2018-03-18T21:02:47.351Z,58.74
2018-03-18T21:05:16.270Z,58.95
2018-03-18T21:07:45.554Z,58.47
2018-03-18T21:10:14.640Z,58.84
2018-03-18T21:12:43.521Z,59.14
2018-03-18T21:15:13.836Z,58.91
2018-03-18T21:17:42.786Z,58.86
2018-03-18T21:20:11.724Z,58.54
2018-03-18T21:22:41.771Z,58.78
2018-03-18T21:25:10.861Z,59.17
2018-03-18T21:27:40.083Z,59.08
2018-03-18T21:30:09.242Z,59.03
2018-03-18T21:32:38.744Z,58.61
2018-03-18T21:35:08.022Z,58.38
2018-03-18T21:37:36.974Z,58.45
2018-03-18T21:40:06.593Z,57.92
2018-03-18T21:42:35.809Z,58.04
2018-03-18T21:45:06.949Z,57.98
2018-03-18T21:47:35.889Z,57.88
2018-03-18T21:50:06.710Z,58.34
2018-03-18T21:52:35.586Z,58.21
2018-03-18T21:55:05.299Z,57.70
2018-03-18T21:57:34.577Z,57.10
2018-03-18T22:00:04.484Z,57.40
2018-03-18T22:02:33.392Z,57.46
2018-03-18T22:05:03.274Z,57.49
2018-03-18T22:07:32.203Z,57.33
2018-03-18T22:10:02.364Z,56.89
2018-03-18T22:12:31.284Z,57.44
2018-03-18T22:15:00.235Z,57.02
2018-03-18T22:17:30.552Z,56.77
2018-03-18T22:19:59.492Z,56.54
2018-03-18T22:22:28.446Z,56.93
2018-03-18T22:24:59.542Z,56.32
2018-03-18T22:27:28.458Z,56.73
2018-03-18T22:29:57.729Z,56.58
2018-03-18T22:32:26.648Z,56.18
2018-03-18T22:34:55.531Z,56.30
2018-03-18T22:37:25.302Z,56.44
2018-03-18T22:39:54.788Z,56.53
2018-03-18T22:42:23.807Z,55.94
2018-03-18T22:44:52.748Z,56.37
2018-03-18T22:47:21.602Z,56.41
2018-03-18T22:49:50.597Z,55.54
2018-03-18T22:52:20.419Z,56.06
2018-03-18T22:54:49.371Z,55.70
2018-03-18T22:57:19.330Z,55.76
2018-03-18T22:59:48.834Z,56.08
2018-03-18T23:02:17.727Z,56.07
2018-03-18T23:04:46.675Z,55.61
2018-03-18T23:07:17.137Z,55.26
2018-03-18T23:09:46.111Z,55.86
2018-03-18T23:12:15.148Z,56.20
2018-03-18T23:14:44.091Z,55.92
2018-03-18T23:17:13.026Z,55.18
2018-03-18T23:19:42.372Z,55.32
2018-03-18T23:22:11.945Z,55.83
2018-03-18T23:24:40.954Z,55.59
2018-03-18T23:27:11.478Z,55.54
2018-03-18T23:29:40.366Z,55.54
2018-03-18T23:32:23.838Z,55.49
2018-03-18T23:34:53.380Z,55.03
2018-03-18T23:37:22.470Z,55.88
2018-03-18T23:39:51.705Z,55.58
2018-03-18T23:42:20.579Z,55.79
2018-03-18T23:44:49.761Z,56.07
2018-03-18T23:47:18.814Z,55.47
2018-03-18T23:49:48.304Z,55.83
2018-03-18T23:52:17.210Z,55.72
2018-03-18T23:54:46.098Z,55.33
2018-03-18T23:57:14.967Z,55.26
2018-03-18T23:59:43.879Z,55.36
